Terminal Aerodrome Forecast
Issued by NWS

Home | Current Version | Previous Version | Text Only | Print | Product List | Glossary On
Versions: 1 2 3 4 5 6 7 8 9 10 11 12 13 14 15 16 17 18 19 20 21 22
000
FTUS45 KABQ 010500
TAFTCC
TAF
KTCC 010531Z 0106/0206 23007KT P6SM VCFG OVC008
     FM011600 23008KT P6SM SCT015
     FM012000 08009KT 4SM BR OVC015
     FM020100 06007KT 2SM -FZDZ BR OVC007=

USA.gov is the U.S. government's official web portal to all federal, state and local government web resources and services.